Poseidon — SVA6091 — position and weather

sailwx.info

Track history (hours):
 
Tides and Currents Weather Stations Pressure Air Temp Water Temp Dewpoint Dewpoint Depression Visibility Wind Speed Wind Dir Waves Ship Positions

Poseidon

Last reported at 2018-Feb-23 14:00 UTC. Time now 2018-Feb-23 16:52 UTC.
Position N 37°57' E 023°36'.

Length 35 m; draft 3.5 m.

Type: Tanker. MMSI: 239869900.

Date/timePositionNaut miles runAvg speedWind from/ knotsBaromVisibWave heightAir tempDewpointWater temp
2018-Feb-23 14:00N 37°57' E 023°36'1 1.9
2018-Feb-23 13:30N 37°57' E 023°35'4 7.2
2018-Feb-23 13:00N 37°53' E 023°34'0 0.1
2018-Feb-23 12:30N 37°53' E 023°34'1 2.9
2018-Feb-23 12:00N 37°52' E 023°33'1 2.7
2018-Feb-23 11:30N 37°51' E 023°32'0 0.5
2018-Feb-23 11:00N 37°51' E 023°32'4 7.5
2018-Feb-23 10:30N 37°55' E 023°34'3 6.7
2018-Feb-23 10:00N 37°57' E 023°36'0 0.0
2018-Feb-23 09:30N 37°57' E 023°36'0 0.0
2018-Feb-23 09:00N 37°57' E 023°36'0 0.0
2018-Feb-23 08:30N 37°57' E 023°36'0 0.0
2018-Feb-23 08:00N 37°57' E 023°36'0 0.0
2018-Feb-23 07:30N 37°57' E 023°36'0 0.0
2018-Feb-22 15:48N 37°57' E 023°36'0 0.8
2018-Feb-22 15:31N 37°57' E 023°36'0 0.0
2018-Feb-22 11:44N 37°57' E 023°36'0 0.0
2018-Feb-22 11:25N 37°57' E 023°36'0 0.7
2018-Feb-22 11:00N 37°57' E 023°36'0 0.0
2018-Feb-21 08:14N 37°57' E 023°36'0 0.6
2018-Feb-21 08:01N 37°57' E 023°36'0 0.4
2018-Feb-21 07:11N 37°57' E 023°37'0 0.0
2018-Feb-20 09:22N 37°57' E 023°37'2 4.3
2018-Feb-20 09:00N 37°57' E 023°35'4 8.2
2018-Feb-20 08:30N 37°53' E 023°33'1 2.1
2018-Feb-20 07:59N 37°52' E 023°32'0 0.8
2018-Feb-20 07:29N 37°52' E 023°32'1 2.4
2018-Feb-20 07:01N 37°53' E 023°33'0 0.6
2018-Feb-20 06:30N 37°54' E 023°33'4 8.0
2018-Feb-20 06:00N 37°57' E 023°36'1 1.7
2018-Feb-20 05:30N 37°57' E 023°37'0 0.0
2018-Feb-18 11:27N 37°57' E 023°37'3 5.9
2018-Feb-18 11:00N 37°56' E 023°34'3 6.8
2018-Feb-18 10:30N 37°52' E 023°33'0 0.2
2018-Feb-18 10:00N 37°52' E 023°33'1 1.7
2018-Feb-18 09:30N 37°53' E 023°33'4 7.6
2018-Feb-18 09:01N 37°57' E 023°35'2 0.1
2018-Feb-17 18:15N 37°57' E 023°37'1 4.8
2018-Feb-17 18:01N 37°57' E 023°35'4 7.9
2018-Feb-17 17:30N 37°54' E 023°33'1 1.4
2018-Feb-17 17:00N 37°53' E 023°32'0 0.0
2018-Feb-17 16:30N 37°53' E 023°32'1 1.6
2018-Feb-17 16:00N 37°54' E 023°33'3 5.6
2018-Feb-17 15:31N 37°56' E 023°35'2 4.3
2018-Feb-17 15:00N 37°57' E 023°37'  
2018-Feb-15 08:55N 37°57' E 023°37'1 3.3
2018-Feb-15 08:30N 37°57' E 023°35'3 6.6
2018-Feb-15 08:00N 37°60' E 023°33'2 3.1
2018-Feb-15 07:30N 38°01' E 023°32'0 0.0
2018-Feb-15 07:00N 38°01' E 023°32'1 2.3
2018-Feb-15 06:30N 38°00' E 023°32'4 7.1
2018-Feb-15 06:00N 37°57' E 023°35'  
Track history (hours):
 
Tides and Currents Weather Stations Pressure Air Temp Water Temp Dewpoint Dewpoint Depression Visibility Wind Speed Wind Dir Waves Ship Positions

Poseidon

Last reported at 2018-Feb-23 14:00 UTC. Time now 2018-Feb-23 16:52 UTC.
Position N 37°57' E 023°36'.

Length 35 m; draft 3.5 m.

Type: Tanker. MMSI: 239869900.

Date/timePositionNaut miles runAvg speedWind from/ knotsBaromVisibWave heightAir tempDewpointWater temp
2018-Feb-23 14:00N 37°57' E 023°36'1 1.9
2018-Feb-23 13:30N 37°57' E 023°35'4 7.2
2018-Feb-23 13:00N 37°53' E 023°34'0 0.1
2018-Feb-23 12:30N 37°53' E 023°34'1 2.9
2018-Feb-23 12:00N 37°52' E 023°33'1 2.7
2018-Feb-23 11:30N 37°51' E 023°32'0 0.5
2018-Feb-23 11:00N 37°51' E 023°32'4 7.5
2018-Feb-23 10:30N 37°55' E 023°34'3 6.7
2018-Feb-23 10:00N 37°57' E 023°36'0 0.0
2018-Feb-23 09:30N 37°57' E 023°36'0 0.0
2018-Feb-23 09:00N 37°57' E 023°36'0 0.0
2018-Feb-23 08:30N 37°57' E 023°36'0 0.0
2018-Feb-23 08:00N 37°57' E 023°36'0 0.0
2018-Feb-23 07:30N 37°57' E 023°36'0 0.0
2018-Feb-22 15:48N 37°57' E 023°36'0 0.8
2018-Feb-22 15:31N 37°57' E 023°36'0 0.0
2018-Feb-22 11:44N 37°57' E 023°36'0 0.0
2018-Feb-22 11:25N 37°57' E 023°36'0 0.7
2018-Feb-22 11:00N 37°57' E 023°36'0 0.0
2018-Feb-21 08:14N 37°57' E 023°36'0 0.6
2018-Feb-21 08:01N 37°57' E 023°36'0 0.4
2018-Feb-21 07:11N 37°57' E 023°37'0 0.0
2018-Feb-20 09:22N 37°57' E 023°37'2 4.3
2018-Feb-20 09:00N 37°57' E 023°35'4 8.2
2018-Feb-20 08:30N 37°53' E 023°33'1 2.1
2018-Feb-20 07:59N 37°52' E 023°32'0 0.8
2018-Feb-20 07:29N 37°52' E 023°32'1 2.4
2018-Feb-20 07:01N 37°53' E 023°33'0 0.6
2018-Feb-20 06:30N 37°54' E 023°33'4 8.0
2018-Feb-20 06:00N 37°57' E 023°36'1 1.7
2018-Feb-20 05:30N 37°57' E 023°37'0 0.0
2018-Feb-18 11:27N 37°57' E 023°37'3 5.9
2018-Feb-18 11:00N 37°56' E 023°34'3 6.8
2018-Feb-18 10:30N 37°52' E 023°33'0 0.2
2018-Feb-18 10:00N 37°52' E 023°33'1 1.7
2018-Feb-18 09:30N 37°53' E 023°33'4 7.6
2018-Feb-18 09:01N 37°57' E 023°35'2 0.1
2018-Feb-17 18:15N 37°57' E 023°37'1 4.8
2018-Feb-17 18:01N 37°57' E 023°35'4 7.9
2018-Feb-17 17:30N 37°54' E 023°33'1 1.4
2018-Feb-17 17:00N 37°53' E 023°32'0 0.0
2018-Feb-17 16:30N 37°53' E 023°32'1 1.6
2018-Feb-17 16:00N 37°54' E 023°33'3 5.6
2018-Feb-17 15:31N 37°56' E 023°35'2 4.3
2018-Feb-17 15:00N 37°57' E 023°37'  
2018-Feb-15 08:55N 37°57' E 023°37'1 3.3
2018-Feb-15 08:30N 37°57' E 023°35'3 6.6
2018-Feb-15 08:00N 37°60' E 023°33'2 3.1
2018-Feb-15 07:30N 38°01' E 023°32'0 0.0
2018-Feb-15 07:00N 38°01' E 023°32'1 2.3
2018-Feb-15 06:30N 38°00' E 023°32'4 7.1
2018-Feb-15 06:00N 37°57' E 023°35'  

Dump ship's entire track history